sensor_id;sensor_type;location;lat;lon;timestamp;temperature;humidity
10433;DHT22;5263;48.680;9.004;2023-12-20T00:02:17;5.50;99.90
10433;DHT22;5263;48.680;9.004;2023-12-20T00:04:42;5.60;99.90
10433;DHT22;5263;48.680;9.004;2023-12-20T00:07:08;5.60;99.90
10433;DHT22;5263;48.680;9.004;2023-12-20T00:09:33;5.60;99.90
10433;DHT22;5263;48.680;9.004;2023-12-20T00:11:59;5.60;99.90
10433;DHT22;5263;48.680;9.004;2023-12-20T00:14:24;5.60;99.90
10433;DHT22;5263;48.680;9.004;2023-12-20T00:16:50;5.60;99.90
10433;DHT22;5263;48.680;9.004;2023-12-20T00:19:15;5.60;99.90
10433;DHT22;5263;48.680;9.004;2023-12-20T00:21:41;5.50;99.90
10433;DHT22;5263;48.680;9.004;2023-12-20T00:24:07;5.40;99.90
10433;DHT22;5263;48.680;9.004;2023-12-20T00:26:33;5.40;99.90
10433;DHT22;5263;48.680;9.004;2023-12-20T00:28:58;5.30;99.90
10433;DHT22;5263;48.680;9.004;2023-12-20T00:31:24;5.30;99.90
10433;DHT22;5263;48.680;9.004;2023-12-20T00:33:49;5.20;99.90
10433;DHT22;5263;48.680;9.004;2023-12-20T00:36:15;5.20;99.90
10433;DHT22;5263;48.680;9.004;2023-12-20T00:38:40;5.20;99.90
10433;DHT22;5263;48.680;9.004;2023-12-20T00:41:06;5.10;99.90
10433;DHT22;5263;48.680;9.004;2023-12-20T00:43:32;5.10;99.90
10433;DHT22;5263;48.680;9.004;2023-12-20T00:45:57;5.00;99.90
10433;DHT22;5263;48.680;9.004;2023-12-20T00:48:25;4.90;99.90
10433;DHT22;5263;48.680;9.004;2023-12-20T00:50:52;5.00;99.90
10433;DHT22;5263;48.680;9.004;2023-12-20T00:53:18;4.90;99.90
10433;DHT22;5263;48.680;9.004;2023-12-20T00:55:44;4.90;99.90
10433;DHT22;5263;48.680;9.004;2023-12-20T00:58:10;4.90;99.90
10433;DHT22;5263;48.680;9.004;2023-12-20T01:00:36;4.80;99.90
10433;DHT22;5263;48.680;9.004;2023-12-20T01:03:01;4.90;99.90
10433;DHT22;5263;48.680;9.004;2023-12-20T01:05:27;4.90;99.90
10433;DHT22;5263;48.680;9.004;2023-12-20T01:07:52;4.80;99.90
10433;DHT22;5263;48.680;9.004;2023-12-20T01:10:18;4.80;99.90
10433;DHT22;5263;48.680;9.004;2023-12-20T01:12:44;4.80;99.90
10433;DHT22;5263;48.680;9.004;2023-12-20T01:15:10;4.80;99.90
10433;DHT22;5263;48.680;9.004;2023-12-20T01:17:35;4.70;99.90
10433;DHT22;5263;48.680;9.004;2023-12-20T01:20:01;4.80;99.90
10433;DHT22;5263;48.680;9.004;2023-12-20T01:22:26;4.70;99.90
10433;DHT22;5263;48.680;9.004;2023-12-20T01:24:52;4.80;99.90
10433;DHT22;5263;48.680;9.004;2023-12-20T01:27:18;4.70;99.90
10433;DHT22;5263;48.680;9.004;2023-12-20T01:29:43;4.70;99.90
10433;DHT22;5263;48.680;9.004;2023-12-20T01:32:09;4.70;99.90
10433;DHT22;5263;48.680;9.004;2023-12-20T01:34:35;4.80;99.90
10433;DHT22;5263;48.680;9.004;2023-12-20T01:37:01;4.80;99.90
10433;DHT22;5263;48.680;9.004;2023-12-20T01:39:27;4.80;99.90
10433;DHT22;5263;48.680;9.004;2023-12-20T01:41:52;4.80;99.90
10433;DHT22;5263;48.680;9.004;2023-12-20T01:44:18;4.80;99.90
10433;DHT22;5263;48.680;9.004;2023-12-20T01:46:43;4.90;99.90
10433;DHT22;5263;48.680;9.004;2023-12-20T01:49:09;5.00;99.90
10433;DHT22;5263;48.680;9.004;2023-12-20T01:51:35;4.90;99.90
10433;DHT22;5263;48.680;9.004;2023-12-20T01:54:01;4.90;99.90
10433;DHT22;5263;48.680;9.004;2023-12-20T01:56:28;4.90;99.90
10433;DHT22;5263;48.680;9.004;2023-12-20T01:58:54;4.90;99.90
10433;DHT22;5263;48.680;9.004;2023-12-20T02:01:20;4.90;99.90
10433;DHT22;5263;48.680;9.004;2023-12-20T02:03:46;4.90;99.90
10433;DHT22;5263;48.680;9.004;2023-12-20T02:06:12;4.90;99.90
10433;DHT22;5263;48.680;9.004;2023-12-20T02:08:38;4.90;99.90
10433;DHT22;5263;48.680;9.004;2023-12-20T02:11:04;4.90;99.90
10433;DHT22;5263;48.680;9.004;2023-12-20T02:13:30;4.90;99.90
10433;DHT22;5263;48.680;9.004;2023-12-20T02:15:56;4.90;99.90
10433;DHT22;5263;48.680;9.004;2023-12-20T02:18:22;4.90;99.90
10433;DHT22;5263;48.680;9.004;2023-12-20T02:20:48;4.90;99.90
10433;DHT22;5263;48.680;9.004;2023-12-20T02:23:14;4.90;99.90
10433;DHT22;5263;48.680;9.004;2023-12-20T02:25:40;4.90;99.90
10433;DHT22;5263;48.680;9.004;2023-12-20T02:28:06;4.90;99.90
10433;DHT22;5263;48.680;9.004;2023-12-20T02:30:32;4.80;99.90
10433;DHT22;5263;48.680;9.004;2023-12-20T02:32:59;4.80;99.90
10433;DHT22;5263;48.680;9.004;2023-12-20T02:35:26;4.90;99.90
10433;DHT22;5263;48.680;9.004;2023-12-20T02:37:51;4.90;99.90
10433;DHT22;5263;48.680;9.004;2023-12-20T02:40:17;4.90;99.90
10433;DHT22;5263;48.680;9.004;2023-12-20T02:42:43;4.80;99.90
10433;DHT22;5263;48.680;9.004;2023-12-20T02:45:08;4.80;99.90
10433;DHT22;5263;48.680;9.004;2023-12-20T02:47:34;4.80;99.90
10433;DHT22;5263;48.680;9.004;2023-12-20T02:49:59;4.80;99.90
10433;DHT22;5263;48.680;9.004;2023-12-20T02:52:27;4.70;99.90
10433;DHT22;5263;48.680;9.004;2023-12-20T02:54:52;4.80;99.90
10433;DHT22;5263;48.680;9.004;2023-12-20T02:57:18;4.80;99.90
10433;DHT22;5263;48.680;9.004;2023-12-20T02:59:43;4.70;99.90
10433;DHT22;5263;48.680;9.004;2023-12-20T03:02:09;4.90;99.90
10433;DHT22;5263;48.680;9.004;2023-12-20T03:04:34;4.80;99.90
10433;DHT22;5263;48.680;9.004;2023-12-20T03:07:00;4.80;99.90
10433;DHT22;5263;48.680;9.004;2023-12-20T03:09:25;4.70;99.90
10433;DHT22;5263;48.680;9.004;2023-12-20T03:11:51;4.60;99.90
10433;DHT22;5263;48.680;9.004;2023-12-20T03:14:16;4.60;99.90
10433;DHT22;5263;48.680;9.004;2023-12-20T03:16:47;4.60;99.90
10433;DHT22;5263;48.680;9.004;2023-12-20T03:19:15;4.60;99.90
10433;DHT22;5263;48.680;9.004;2023-12-20T03:21:41;4.70;99.90
10433;DHT22;5263;48.680;9.004;2023-12-20T03:24:06;4.60;99.90
10433;DHT22;5263;48.680;9.004;2023-12-20T03:26:32;4.90;99.90
10433;DHT22;5263;48.680;9.004;2023-12-20T03:28:57;4.90;99.90
10433;DHT22;5263;48.680;9.004;2023-12-20T03:31:23;4.70;99.90
10433;DHT22;5263;48.680;9.004;2023-12-20T03:33:49;4.70;99.90
10433;DHT22;5263;48.680;9.004;2023-12-20T03:36:14;4.70;99.90
10433;DHT22;5263;48.680;9.004;2023-12-20T03:38:40;4.70;99.90
10433;DHT22;5263;48.680;9.004;2023-12-20T03:41:07;4.60;99.90
10433;DHT22;5263;48.680;9.004;2023-12-20T03:43:33;4.60;99.90
10433;DHT22;5263;48.680;9.004;2023-12-20T03:45:58;4.60;99.90
10433;DHT22;5263;48.680;9.004;2023-12-20T03:48:25;4.70;99.90
10433;DHT22;5263;48.680;9.004;2023-12-20T03:50:50;4.70;99.90
10433;DHT22;5263;48.680;9.004;2023-12-20T03:53:16;4.70;99.90
10433;DHT22;5263;48.680;9.004;2023-12-20T03:55:41;4.70;99.90
10433;DHT22;5263;48.680;9.004;2023-12-20T03:58:07;4.80;99.90
10433;DHT22;5263;48.680;9.004;2023-12-20T04:00:33;4.80;99.90
10433;DHT22;5263;48.680;9.004;2023-12-20T04:02:58;4.80;99.90
10433;DHT22;5263;48.680;9.004;2023-12-20T04:05:24;4.80;99.90
10433;DHT22;5263;48.680;9.004;2023-12-20T04:07:49;4.70;99.90
10433;DHT22;5263;48.680;9.004;2023-12-20T04:10:15;4.50;99.90
10433;DHT22;5263;48.680;9.004;2023-12-20T04:12:41;4.40;99.90
10433;DHT22;5263;48.680;9.004;2023-12-20T04:15:07;4.30;99.90
10433;DHT22;5263;48.680;9.004;2023-12-20T04:17:35;4.30;99.90
10433;DHT22;5263;48.680;9.004;2023-12-20T04:20:01;4.30;99.90
10433;DHT22;5263;48.680;9.004;2023-12-20T04:22:27;4.40;99.90
10433;DHT22;5263;48.680;9.004;2023-12-20T04:24:52;4.30;99.90
10433;DHT22;5263;48.680;9.004;2023-12-20T04:27:18;4.30;99.90
10433;DHT22;5263;48.680;9.004;2023-12-20T04:29:43;4.20;99.90
10433;DHT22;5263;48.680;9.004;2023-12-20T04:32:09;4.30;99.90
10433;DHT22;5263;48.680;9.004;2023-12-20T04:34:35;4.30;99.90
10433;DHT22;5263;48.680;9.004;2023-12-20T04:37:01;4.20;99.90
10433;DHT22;5263;48.680;9.004;2023-12-20T04:39:27;4.40;99.90
10433;DHT22;5263;48.680;9.004;2023-12-20T04:41:52;4.30;99.90
10433;DHT22;5263;48.680;9.004;2023-12-20T04:44:18;4.40;99.90
10433;DHT22;5263;48.680;9.004;2023-12-20T04:46:44;4.40;99.90
10433;DHT22;5263;48.680;9.004;2023-12-20T04:49:09;4.40;99.90
10433;DHT22;5263;48.680;9.004;2023-12-20T04:51:35;4.40;99.90
10433;DHT22;5263;48.680;9.004;2023-12-20T04:54:01;4.40;99.90
10433;DHT22;5263;48.680;9.004;2023-12-20T04:56:27;4.30;99.90
10433;DHT22;5263;48.680;9.004;2023-12-20T04:58:53;4.30;99.90
10433;DHT22;5263;48.680;9.004;2023-12-20T05:01:18;4.20;99.90
10433;DHT22;5263;48.680;9.004;2023-12-20T05:03:44;4.20;99.90
10433;DHT22;5263;48.680;9.004;2023-12-20T05:06:10;4.40;99.90
10433;DHT22;5263;48.680;9.004;2023-12-20T05:08:35;4.70;99.90
10433;DHT22;5263;48.680;9.004;2023-12-20T05:11:01;4.70;99.90
10433;DHT22;5263;48.680;9.004;2023-12-20T05:13:27;4.90;99.90
10433;DHT22;5263;48.680;9.004;2023-12-20T05:15:52;4.60;99.90
10433;DHT22;5263;48.680;9.004;2023-12-20T05:18:18;4.40;99.90
10433;DHT22;5263;48.680;9.004;2023-12-20T05:20:44;4.30;99.90
10433;DHT22;5263;48.680;9.004;2023-12-20T05:23:09;4.30;99.90
10433;DHT22;5263;48.680;9.004;2023-12-20T05:25:35;4.30;99.90
10433;DHT22;5263;48.680;9.004;2023-12-20T05:28:00;4.40;99.90
10433;DHT22;5263;48.680;9.004;2023-12-20T05:30:26;4.20;99.90
10433;DHT22;5263;48.680;9.004;2023-12-20T05:32:52;4.10;99.90
10433;DHT22;5263;48.680;9.004;2023-12-20T05:35:17;4.30;99.90
10433;DHT22;5263;48.680;9.004;2023-12-20T05:37:43;4.40;99.90
10433;DHT22;5263;48.680;9.004;2023-12-20T05:40:09;4.30;99.90
10433;DHT22;5263;48.680;9.004;2023-12-20T05:42:37;4.30;99.90
10433;DHT22;5263;48.680;9.004;2023-12-20T05:45:04;4.30;99.90
10433;DHT22;5263;48.680;9.004;2023-12-20T05:47:29;4.30;99.90
10433;DHT22;5263;48.680;9.004;2023-12-20T05:49:55;4.30;99.90
10433;DHT22;5263;48.680;9.004;2023-12-20T05:52:20;4.00;99.90
10433;DHT22;5263;48.680;9.004;2023-12-20T05:54:46;4.10;99.90
10433;DHT22;5263;48.680;9.004;2023-12-20T05:57:11;4.20;99.90
10433;DHT22;5263;48.680;9.004;2023-12-20T05:59:37;4.10;99.90
10433;DHT22;5263;48.680;9.004;2023-12-20T06:02:03;4.20;99.90
10433;DHT22;5263;48.680;9.004;2023-12-20T06:04:30;4.30;99.90
10433;DHT22;5263;48.680;9.004;2023-12-20T06:06:55;4.20;99.90
10433;DHT22;5263;48.680;9.004;2023-12-20T06:09:21;4.20;99.90
10433;DHT22;5263;48.680;9.004;2023-12-20T06:11:46;4.20;99.90
10433;DHT22;5263;48.680;9.004;2023-12-20T06:14:12;4.20;99.90
10433;DHT22;5263;48.680;9.004;2023-12-20T06:16:38;4.10;99.90
10433;DHT22;5263;48.680;9.004;2023-12-20T06:19:03;4.00;99.90
10433;DHT22;5263;48.680;9.004;2023-12-20T06:21:29;4.10;99.90
10433;DHT22;5263;48.680;9.004;2023-12-20T06:23:54;4.10;99.90
10433;DHT22;5263;48.680;9.004;2023-12-20T06:26:20;4.20;99.90
10433;DHT22;5263;48.680;9.004;2023-12-20T06:28:45;4.00;99.90
10433;DHT22;5263;48.680;9.004;2023-12-20T06:31:11;4.10;99.90
10433;DHT22;5263;48.680;9.004;2023-12-20T06:33:37;4.20;99.90
10433;DHT22;5263;48.680;9.004;2023-12-20T06:36:02;4.10;99.90
10433;DHT22;5263;48.680;9.004;2023-12-20T06:38:28;4.00;99.90
10433;DHT22;5263;48.680;9.004;2023-12-20T06:40:54;4.10;99.90
10433;DHT22;5263;48.680;9.004;2023-12-20T06:43:19;4.20;99.90
10433;DHT22;5263;48.680;9.004;2023-12-20T06:45:45;4.10;99.90
10433;DHT22;5263;48.680;9.004;2023-12-20T06:48:10;4.20;99.90
10433;DHT22;5263;48.680;9.004;2023-12-20T06:50:38;4.10;99.90
10433;DHT22;5263;48.680;9.004;2023-12-20T06:53:06;4.10;99.90
10433;DHT22;5263;48.680;9.004;2023-12-20T06:55:33;4.20;99.90
10433;DHT22;5263;48.680;9.004;2023-12-20T06:58:00;4.30;99.90
10433;DHT22;5263;48.680;9.004;2023-12-20T07:00:25;4.20;99.90
10433;DHT22;5263;48.680;9.004;2023-12-20T07:02:51;4.30;99.90
10433;DHT22;5263;48.680;9.004;2023-12-20T07:05:17;4.20;99.90
10433;DHT22;5263;48.680;9.004;2023-12-20T07:07:45;4.40;99.90
10433;DHT22;5263;48.680;9.004;2023-12-20T07:10:11;4.20;99.90
10433;DHT22;5263;48.680;9.004;2023-12-20T07:12:37;4.20;99.90
10433;DHT22;5263;48.680;9.004;2023-12-20T07:15:03;4.20;99.90
10433;DHT22;5263;48.680;9.004;2023-12-20T07:17:29;4.20;99.90
10433;DHT22;5263;48.680;9.004;2023-12-20T07:19:54;4.20;99.90
10433;DHT22;5263;48.680;9.004;2023-12-20T07:22:20;4.20;99.90
10433;DHT22;5263;48.680;9.004;2023-12-20T07:24:46;4.30;99.90
10433;DHT22;5263;48.680;9.004;2023-12-20T07:27:11;4.40;99.90
10433;DHT22;5263;48.680;9.004;2023-12-20T07:29:37;4.50;99.90
10433;DHT22;5263;48.680;9.004;2023-12-20T07:32:03;4.70;99.90
10433;DHT22;5263;48.680;9.004;2023-12-20T07:34:28;4.60;99.90
10433;DHT22;5263;48.680;9.004;2023-12-20T07:36:54;4.60;99.90
10433;DHT22;5263;48.680;9.004;2023-12-20T07:39:19;4.60;99.90
10433;DHT22;5263;48.680;9.004;2023-12-20T07:41:45;4.60;99.90
10433;DHT22;5263;48.680;9.004;2023-12-20T07:44:10;4.70;99.90
10433;DHT22;5263;48.680;9.004;2023-12-20T07:46:36;4.80;99.90
10433;DHT22;5263;48.680;9.004;2023-12-20T07:49:01;4.70;99.90
10433;DHT22;5263;48.680;9.004;2023-12-20T07:51:27;4.80;99.90
10433;DHT22;5263;48.680;9.004;2023-12-20T07:53:52;4.80;99.90
10433;DHT22;5263;48.680;9.004;2023-12-20T07:56:19;4.80;99.90
10433;DHT22;5263;48.680;9.004;2023-12-20T07:58:45;4.70;99.90
10433;DHT22;5263;48.680;9.004;2023-12-20T08:01:11;4.80;99.90
10433;DHT22;5263;48.680;9.004;2023-12-20T08:03:38;4.80;99.90
10433;DHT22;5263;48.680;9.004;2023-12-20T08:06:03;4.80;99.90
10433;DHT22;5263;48.680;9.004;2023-12-20T08:08:29;4.80;99.90
10433;DHT22;5263;48.680;9.004;2023-12-20T08:10:55;4.80;99.90
10433;DHT22;5263;48.680;9.004;2023-12-20T08:13:23;4.80;99.90
10433;DHT22;5263;48.680;9.004;2023-12-20T08:15:51;4.80;99.90
10433;DHT22;5263;48.680;9.004;2023-12-20T08:18:17;4.80;99.90
10433;DHT22;5263;48.680;9.004;2023-12-20T08:20:42;4.80;99.90
10433;DHT22;5263;48.680;9.004;2023-12-20T08:23:08;4.80;99.90
10433;DHT22;5263;48.680;9.004;2023-12-20T08:25:33;4.70;99.90
10433;DHT22;5263;48.680;9.004;2023-12-20T08:27:59;4.80;99.90
10433;DHT22;5263;48.680;9.004;2023-12-20T08:30:24;4.70;99.90
10433;DHT22;5263;48.680;9.004;2023-12-20T08:32:50;4.70;99.90
10433;DHT22;5263;48.680;9.004;2023-12-20T08:35:16;4.60;99.90
10433;DHT22;5263;48.680;9.004;2023-12-20T08:37:43;4.70;99.90
10433;DHT22;5263;48.680;9.004;2023-12-20T08:40:09;4.60;99.90
10433;DHT22;5263;48.680;9.004;2023-12-20T08:42:35;4.60;99.90
10433;DHT22;5263;48.680;9.004;2023-12-20T08:45:00;4.60;99.90
10433;DHT22;5263;48.680;9.004;2023-12-20T08:47:26;4.60;99.90
10433;DHT22;5263;48.680;9.004;2023-12-20T08:49:52;4.60;99.90
10433;DHT22;5263;48.680;9.004;2023-12-20T08:52:22;4.50;99.90
10433;DHT22;5263;48.680;9.004;2023-12-20T08:54:49;4.50;99.90
10433;DHT22;5263;48.680;9.004;2023-12-20T08:57:18;4.50;99.90
10433;DHT22;5263;48.680;9.004;2023-12-20T08:59:43;4.40;99.90
10433;DHT22;5263;48.680;9.004;2023-12-20T09:02:09;4.40;99.90
10433;DHT22;5263;48.680;9.004;2023-12-20T09:04:35;4.40;99.90
10433;DHT22;5263;48.680;9.004;2023-12-20T09:07:00;4.30;99.90
10433;DHT22;5263;48.680;9.004;2023-12-20T09:09:26;4.30;99.90
10433;DHT22;5263;48.680;9.004;2023-12-20T09:11:52;4.20;99.90
10433;DHT22;5263;48.680;9.004;2023-12-20T09:14:17;4.20;99.90
10433;DHT22;5263;48.680;9.004;2023-12-20T09:16:43;4.30;99.90
10433;DHT22;5263;48.680;9.004;2023-12-20T09:19:09;4.30;99.90
10433;DHT22;5263;48.680;9.004;2023-12-20T09:21:34;4.40;99.90
10433;DHT22;5263;48.680;9.004;2023-12-20T09:24:00;4.40;99.90
10433;DHT22;5263;48.680;9.004;2023-12-20T09:26:25;4.40;99.90
10433;DHT22;5263;48.680;9.004;2023-12-20T09:28:51;4.40;99.90
10433;DHT22;5263;48.680;9.004;2023-12-20T09:31:16;4.40;99.90
10433;DHT22;5263;48.680;9.004;2023-12-20T09:33:42;4.60;99.90
10433;DHT22;5263;48.680;9.004;2023-12-20T09:36:07;4.50;99.90
10433;DHT22;5263;48.680;9.004;2023-12-20T09:38:33;4.80;99.90
10433;DHT22;5263;48.680;9.004;2023-12-20T09:41:00;5.50;99.90
10433;DHT22;5263;48.680;9.004;2023-12-20T09:43:27;6.50;99.90
10433;DHT22;5263;48.680;9.004;2023-12-20T09:46:00;7.80;99.90
10433;DHT22;5263;48.680;9.004;2023-12-20T09:48:27;8.20;99.90
10433;DHT22;5263;48.680;9.004;2023-12-20T09:50:54;8.60;99.90
10433;DHT22;5263;48.680;9.004;2023-12-20T09:53:21;8.10;99.90
10433;DHT22;5263;48.680;9.004;2023-12-20T09:55:48;8.70;99.90
10433;DHT22;5263;48.680;9.004;2023-12-20T09:58:14;9.90;99.90
10433;DHT22;5263;48.680;9.004;2023-12-20T10:00:40;11.00;99.90
10433;DHT22;5263;48.680;9.004;2023-12-20T10:03:06;11.60;99.90
10433;DHT22;5263;48.680;9.004;2023-12-20T10:05:33;12.00;99.90
10433;DHT22;5263;48.680;9.004;2023-12-20T10:08:00;12.90;99.90
10433;DHT22;5263;48.680;9.004;2023-12-20T10:10:26;13.20;99.90
10433;DHT22;5263;48.680;9.004;2023-12-20T10:13:11;10.90;99.90
10433;DHT22;5263;48.680;9.004;2023-12-20T10:15:37;9.40;99.90
10433;DHT22;5263;48.680;9.004;2023-12-20T10:18:04;7.80;99.90
10433;DHT22;5263;48.680;9.004;2023-12-20T10:20:30;6.80;99.90
10433;DHT22;5263;48.680;9.004;2023-12-20T10:22:57;6.40;99.90
10433;DHT22;5263;48.680;9.004;2023-12-20T10:25:23;6.30;99.90
10433;DHT22;5263;48.680;9.004;2023-12-20T10:27:50;5.80;99.90
10433;DHT22;5263;48.680;9.004;2023-12-20T10:30:16;5.20;99.90
10433;DHT22;5263;48.680;9.004;2023-12-20T10:32:41;5.20;99.90
10433;DHT22;5263;48.680;9.004;2023-12-20T10:35:08;5.20;99.90
10433;DHT22;5263;48.680;9.004;2023-12-20T10:37:37;5.10;99.90
10433;DHT22;5263;48.680;9.004;2023-12-20T10:40:04;5.10;99.90
10433;DHT22;5263;48.680;9.004;2023-12-20T10:42:31;5.20;99.90
10433;DHT22;5263;48.680;9.004;2023-12-20T10:44:59;5.20;99.90
10433;DHT22;5263;48.680;9.004;2023-12-20T10:47:25;5.30;99.90
10433;DHT22;5263;48.680;9.004;2023-12-20T10:49:52;5.40;99.90
10433;DHT22;5263;48.680;9.004;2023-12-20T10:52:18;5.30;99.90
10433;DHT22;5263;48.680;9.004;2023-12-20T10:54:44;5.40;99.90
10433;DHT22;5263;48.680;9.004;2023-12-20T10:57:10;5.20;99.90
10433;DHT22;5263;48.680;9.004;2023-12-20T10:59:37;5.10;99.90
10433;DHT22;5263;48.680;9.004;2023-12-20T11:02:04;5.20;99.90
10433;DHT22;5263;48.680;9.004;2023-12-20T11:04:55;5.20;99.90
10433;DHT22;5263;48.680;9.004;2023-12-20T11:07:29;5.20;99.90
10433;DHT22;5263;48.680;9.004;2023-12-20T11:10:10;5.20;99.90
10433;DHT22;5263;48.680;9.004;2023-12-20T11:12:49;5.30;99.90
10433;DHT22;5263;48.680;9.004;2023-12-20T11:15:17;5.20;99.90
10433;DHT22;5263;48.680;9.004;2023-12-20T11:17:45;5.00;99.90
10433;DHT22;5263;48.680;9.004;2023-12-20T11:20:12;5.20;99.90
10433;DHT22;5263;48.680;9.004;2023-12-20T11:22:38;5.40;99.90
10433;DHT22;5263;48.680;9.004;2023-12-20T11:25:10;5.50;99.90
10433;DHT22;5263;48.680;9.004;2023-12-20T11:27:40;5.80;99.90
10433;DHT22;5263;48.680;9.004;2023-12-20T11:30:06;5.70;99.90
10433;DHT22;5263;48.680;9.004;2023-12-20T11:32:34;5.50;99.90
10433;DHT22;5263;48.680;9.004;2023-12-20T11:35:16;5.50;99.90
10433;DHT22;5263;48.680;9.004;2023-12-20T11:37:41;5.30;99.90
10433;DHT22;5263;48.680;9.004;2023-12-20T11:40:12;5.10;99.90
10433;DHT22;5263;48.680;9.004;2023-12-20T11:42:48;5.10;99.90
10433;DHT22;5263;48.680;9.004;2023-12-20T11:45:16;5.10;99.90
10433;DHT22;5263;48.680;9.004;2023-12-20T11:47:45;5.10;99.90
10433;DHT22;5263;48.680;9.004;2023-12-20T11:50:11;5.10;99.90
10433;DHT22;5263;48.680;9.004;2023-12-20T11:52:36;5.00;99.90
10433;DHT22;5263;48.680;9.004;2023-12-20T11:55:02;5.10;99.90
10433;DHT22;5263;48.680;9.004;2023-12-20T11:57:29;5.00;99.90
10433;DHT22;5263;48.680;9.004;2023-12-20T11:59:55;5.10;99.90
10433;DHT22;5263;48.680;9.004;2023-12-20T12:02:21;4.90;99.90
10433;DHT22;5263;48.680;9.004;2023-12-20T12:04:48;4.80;99.90
10433;DHT22;5263;48.680;9.004;2023-12-20T12:07:14;4.80;99.90
10433;DHT22;5263;48.680;9.004;2023-12-20T12:09:39;4.90;99.90
10433;DHT22;5263;48.680;9.004;2023-12-20T12:12:06;4.90;99.90
10433;DHT22;5263;48.680;9.004;2023-12-20T12:14:32;5.00;99.90
10433;DHT22;5263;48.680;9.004;2023-12-20T12:16:57;5.10;99.90
10433;DHT22;5263;48.680;9.004;2023-12-20T12:19:23;5.10;99.90
10433;DHT22;5263;48.680;9.004;2023-12-20T12:21:50;5.10;99.90
10433;DHT22;5263;48.680;9.004;2023-12-20T12:24:20;5.10;99.90
10433;DHT22;5263;48.680;9.004;2023-12-20T12:26:57;5.10;99.90
10433;DHT22;5263;48.680;9.004;2023-12-20T12:29:23;5.10;99.90
10433;DHT22;5263;48.680;9.004;2023-12-20T12:31:50;5.10;99.90
10433;DHT22;5263;48.680;9.004;2023-12-20T12:34:16;5.20;99.90
10433;DHT22;5263;48.680;9.004;2023-12-20T12:36:43;5.40;99.90
10433;DHT22;5263;48.680;9.004;2023-12-20T12:39:11;5.40;99.90
10433;DHT22;5263;48.680;9.004;2023-12-20T12:41:37;5.30;99.90
10433;DHT22;5263;48.680;9.004;2023-12-20T12:44:02;5.40;99.90
10433;DHT22;5263;48.680;9.004;2023-12-20T12:46:28;5.40;99.90
10433;DHT22;5263;48.680;9.004;2023-12-20T12:48:54;5.50;99.90
10433;DHT22;5263;48.680;9.004;2023-12-20T12:51:20;5.70;99.90
10433;DHT22;5263;48.680;9.004;2023-12-20T12:53:45;5.80;99.90
10433;DHT22;5263;48.680;9.004;2023-12-20T12:56:12;5.60;99.90
10433;DHT22;5263;48.680;9.004;2023-12-20T12:58:38;5.70;99.90
10433;DHT22;5263;48.680;9.004;2023-12-20T13:01:04;5.50;99.90
10433;DHT22;5263;48.680;9.004;2023-12-20T13:03:30;5.60;99.90
10433;DHT22;5263;48.680;9.004;2023-12-20T13:05:56;5.40;99.90
10433;DHT22;5263;48.680;9.004;2023-12-20T13:08:21;5.40;99.90
10433;DHT22;5263;48.680;9.004;2023-12-20T13:10:47;5.30;99.90
10433;DHT22;5263;48.680;9.004;2023-12-20T13:13:13;5.40;99.90
10433;DHT22;5263;48.680;9.004;2023-12-20T13:15:38;5.50;99.90
10433;DHT22;5263;48.680;9.004;2023-12-20T13:18:04;5.50;99.90
10433;DHT22;5263;48.680;9.004;2023-12-20T13:20:31;5.70;99.90
10433;DHT22;5263;48.680;9.004;2023-12-20T13:22:57;5.80;99.90
10433;DHT22;5263;48.680;9.004;2023-12-20T13:25:22;5.80;99.90
10433;DHT22;5263;48.680;9.004;2023-12-20T13:27:49;6.20;99.90
10433;DHT22;5263;48.680;9.004;2023-12-20T13:30:16;6.00;99.90
10433;DHT22;5263;48.680;9.004;2023-12-20T13:32:42;5.70;99.90
10433;DHT22;5263;48.680;9.004;2023-12-20T13:35:07;5.70;99.90
10433;DHT22;5263;48.680;9.004;2023-12-20T13:37:33;5.60;99.90
10433;DHT22;5263;48.680;9.004;2023-12-20T13:39:59;5.80;99.90
10433;DHT22;5263;48.680;9.004;2023-12-20T13:42:25;6.50;99.90
10433;DHT22;5263;48.680;9.004;2023-12-20T13:44:53;6.50;99.90
10433;DHT22;5263;48.680;9.004;2023-12-20T13:47:18;6.20;99.90
10433;DHT22;5263;48.680;9.004;2023-12-20T13:49:45;5.80;99.90
10433;DHT22;5263;48.680;9.004;2023-12-20T13:52:11;5.60;99.90
10433;DHT22;5263;48.680;9.004;2023-12-20T13:54:37;5.50;99.90
10433;DHT22;5263;48.680;9.004;2023-12-20T13:57:03;5.30;99.90
10433;DHT22;5263;48.680;9.004;2023-12-20T13:59:29;5.20;99.90
10433;DHT22;5263;48.680;9.004;2023-12-20T14:01:54;5.10;99.90
10433;DHT22;5263;48.680;9.004;2023-12-20T14:04:20;5.10;99.90
10433;DHT22;5263;48.680;9.004;2023-12-20T14:06:47;5.10;99.90
10433;DHT22;5263;48.680;9.004;2023-12-20T14:09:12;4.90;99.90
10433;DHT22;5263;48.680;9.004;2023-12-20T14:11:38;5.00;99.90
10433;DHT22;5263;48.680;9.004;2023-12-20T14:14:07;4.90;99.90
10433;DHT22;5263;48.680;9.004;2023-12-20T14:16:34;4.80;99.90
10433;DHT22;5263;48.680;9.004;2023-12-20T14:19:00;4.80;99.90
10433;DHT22;5263;48.680;9.004;2023-12-20T14:21:26;4.80;99.90
10433;DHT22;5263;48.680;9.004;2023-12-20T14:23:51;4.80;99.90
10433;DHT22;5263;48.680;9.004;2023-12-20T14:26:17;4.70;99.90
10433;DHT22;5263;48.680;9.004;2023-12-20T14:28:43;4.70;99.90
10433;DHT22;5263;48.680;9.004;2023-12-20T14:31:09;4.70;99.90
10433;DHT22;5263;48.680;9.004;2023-12-20T14:33:35;4.60;99.90
10433;DHT22;5263;48.680;9.004;2023-12-20T14:36:04;4.60;99.90
10433;DHT22;5263;48.680;9.004;2023-12-20T14:38:31;4.50;99.90
10433;DHT22;5263;48.680;9.004;2023-12-20T14:40:56;4.40;99.90
10433;DHT22;5263;48.680;9.004;2023-12-20T14:43:22;4.20;99.90
10433;DHT22;5263;48.680;9.004;2023-12-20T14:45:48;4.20;99.90
10433;DHT22;5263;48.680;9.004;2023-12-20T14:48:14;4.10;99.90
10433;DHT22;5263;48.680;9.004;2023-12-20T14:50:39;4.00;99.90
10433;DHT22;5263;48.680;9.004;2023-12-20T14:53:08;4.00;99.90
10433;DHT22;5263;48.680;9.004;2023-12-20T14:55:34;4.00;99.90
10433;DHT22;5263;48.680;9.004;2023-12-20T14:58:00;4.00;99.90
10433;DHT22;5263;48.680;9.004;2023-12-20T15:00:26;3.90;99.90
10433;DHT22;5263;48.680;9.004;2023-12-20T15:02:52;3.90;99.90
10433;DHT22;5263;48.680;9.004;2023-12-20T15:05:20;3.90;99.90
10433;DHT22;5263;48.680;9.004;2023-12-20T15:07:46;3.90;99.90
10433;DHT22;5263;48.680;9.004;2023-12-20T15:10:14;3.90;99.90
10433;DHT22;5263;48.680;9.004;2023-12-20T15:12:40;3.80;99.90
10433;DHT22;5263;48.680;9.004;2023-12-20T15:15:06;3.80;99.90
10433;DHT22;5263;48.680;9.004;2023-12-20T15:17:32;3.70;99.90
10433;DHT22;5263;48.680;9.004;2023-12-20T15:19:58;3.70;99.90
10433;DHT22;5263;48.680;9.004;2023-12-20T15:22:24;3.70;99.90
10433;DHT22;5263;48.680;9.004;2023-12-20T15:24:51;3.60;99.90
10433;DHT22;5263;48.680;9.004;2023-12-20T15:27:19;3.50;99.90
10433;DHT22;5263;48.680;9.004;2023-12-20T15:29:45;3.50;99.90
10433;DHT22;5263;48.680;9.004;2023-12-20T15:32:10;3.60;99.90
10433;DHT22;5263;48.680;9.004;2023-12-20T15:34:36;3.50;99.90
10433;DHT22;5263;48.680;9.004;2023-12-20T15:37:01;3.50;99.90
10433;DHT22;5263;48.680;9.004;2023-12-20T15:39:27;3.50;99.90
10433;DHT22;5263;48.680;9.004;2023-12-20T15:41:52;3.50;99.90
10433;DHT22;5263;48.680;9.004;2023-12-20T15:44:18;3.50;99.90
10433;DHT22;5263;48.680;9.004;2023-12-20T15:46:44;3.50;99.90
10433;DHT22;5263;48.680;9.004;2023-12-20T15:49:09;3.60;99.90
10433;DHT22;5263;48.680;9.004;2023-12-20T15:51:38;3.60;99.90
10433;DHT22;5263;48.680;9.004;2023-12-20T15:54:03;3.80;99.90
10433;DHT22;5263;48.680;9.004;2023-12-20T15:56:32;3.60;99.90